createdAt,value
2022-12-01T00:00:43.296Z,51.40
2022-12-01T00:01:43.392Z,56.30
2022-12-01T00:02:43.455Z,59.90
2022-12-01T00:03:43.298Z,57.50
2022-12-01T00:04:43.301Z,55.10
2022-12-01T00:05:43.225Z,52.60
2022-12-01T00:06:43.233Z,61.80
2022-12-01T00:07:43.309Z,65.30
2022-12-01T00:08:43.197Z,69.90
2022-12-01T00:09:43.213Z,69.80
2022-12-01T00:10:43.206Z,66.80
2022-12-01T00:11:43.200Z,67.00
2022-12-01T00:12:43.219Z,66.60
2022-12-01T00:13:43.170Z,70.40
2022-12-01T00:15:15.538Z,71.00
2022-12-01T00:15:43.125Z,74.10
2022-12-01T00:16:43.150Z,68.80
2022-12-01T00:17:43.101Z,71.30
2022-12-01T00:18:43.084Z,67.20
2022-12-01T00:19:43.070Z,66.10
2022-12-01T00:20:43.111Z,66.00
2022-12-01T00:21:43.074Z,69.50
2022-12-01T00:22:43.041Z,72.00
2022-12-01T00:23:43.077Z,69.20
2022-12-01T00:24:43.026Z,71.10
2022-12-01T00:25:43.053Z,73.10
2022-12-01T00:26:43.331Z,77.70
2022-12-01T00:27:42.978Z,77.60
2022-12-01T00:28:43.010Z,83.30
2022-12-01T00:29:42.949Z,82.60
2022-12-01T00:30:42.976Z,86.40
2022-12-01T00:31:43.008Z,83.80
2022-12-01T00:32:42.933Z,83.40
2022-12-01T00:33:42.919Z,84.40
2022-12-01T00:34:42.907Z,84.20
2022-12-01T00:35:42.879Z,85.40
2022-12-01T00:36:42.872Z,85.30
2022-12-01T00:37:42.871Z,89.50
2022-12-01T00:38:42.889Z,94.70
2022-12-01T00:39:42.876Z,89.60
2022-12-01T00:40:42.892Z,92.40
2022-12-01T00:41:42.816Z,96.50
2022-12-01T00:42:42.853Z,95.60
2022-12-01T00:43:42.785Z,91.70
2022-12-01T00:44:42.787Z,94.80
2022-12-01T00:45:43.604Z,91.30
2022-12-01T00:46:42.773Z,92.00
2022-12-01T00:47:42.767Z,93.70
2022-12-01T00:48:42.767Z,93.00
2022-12-01T00:49:42.807Z,93.50
2022-12-01T00:50:42.728Z,91.10
2022-12-01T00:51:42.764Z,97.00
2022-12-01T00:52:42.710Z,100.70
2022-12-01T00:53:42.708Z,88.80
2022-12-01T00:54:42.717Z,89.40
2022-12-01T00:55:42.856Z,87.20
2022-12-01T00:56:42.665Z,93.30
2022-12-01T00:57:42.640Z,95.90
2022-12-01T00:58:42.655Z,97.70
2022-12-01T00:59:42.645Z,96.20
2022-12-01T01:00:42.649Z,95.30
2022-12-01T01:01:42.650Z,97.10
2022-12-01T01:02:42.633Z,101.10
2022-12-01T01:03:43.668Z,101.40
2022-12-01T01:04:42.580Z,101.70
2022-12-01T01:05:42.584Z,98.80
2022-12-01T01:06:42.600Z,102.60
2022-12-01T01:07:42.624Z,102.90
2022-12-01T01:08:42.569Z,97.70
2022-12-01T01:09:42.536Z,99.80
2022-12-01T01:10:42.504Z,98.30
2022-12-01T01:11:42.546Z,93.30
2022-12-01T01:12:43.131Z,96.80
2022-12-01T01:13:43.053Z,99.20
2022-12-01T01:14:42.456Z,100.40
2022-12-01T01:15:43.040Z,97.30
2022-12-01T01:16:42.548Z,97.20
2022-12-01T01:17:42.426Z,96.40
2022-12-01T01:18:42.464Z,95.00
2022-12-01T01:19:42.381Z,101.40
2022-12-01T01:20:42.417Z,97.70
2022-12-01T01:21:42.378Z,95.60
2022-12-01T01:22:42.365Z,104.50
2022-12-01T01:23:42.414Z,101.30
2022-12-01T01:24:42.348Z,100.40
2022-12-01T01:25:42.314Z,100.00
2022-12-01T01:26:42.311Z,108.30
2022-12-01T01:27:42.323Z,106.30
2022-12-01T01:28:42.339Z,99.50
2022-12-01T01:29:42.283Z,100.70
2022-12-01T01:30:42.296Z,108.10
2022-12-01T01:31:42.302Z,101.50
2022-12-01T01:32:42.242Z,107.60
2022-12-01T01:33:42.281Z,106.10
2022-12-01T01:34:42.236Z,103.80
2022-12-01T01:35:42.209Z,104.70
2022-12-01T01:36:42.186Z,109.80
2022-12-01T01:37:42.227Z,109.80
2022-12-01T01:38:42.218Z,109.60
2022-12-01T01:39:42.259Z,108.90
2022-12-01T01:40:42.235Z,107.90
2022-12-01T01:41:43.143Z,107.20
2022-12-01T01:42:42.159Z,104.90
2022-12-01T01:43:42.094Z,108.90
2022-12-01T01:44:43.165Z,112.80
2022-12-01T01:45:42.159Z,110.90
2022-12-01T01:46:43.070Z,107.20
2022-12-01T01:47:42.087Z,107.90
2022-12-01T01:48:42.050Z,104.70
2022-12-01T01:49:42.063Z,108.60
2022-12-01T01:50:42.066Z,113.70
2022-12-01T01:51:42.043Z,115.30
2022-12-01T01:52:42.073Z,115.60
2022-12-01T01:53:42.078Z,114.30
2022-12-01T01:54:42.003Z,118.60
2022-12-01T01:55:42.059Z,111.30
2022-12-01T01:56:41.986Z,117.60
2022-12-01T01:57:42.003Z,117.00
2022-12-01T01:58:42.010Z,120.20
2022-12-01T01:59:41.938Z,115.80
2022-12-01T02:00:41.960Z,116.30
2022-12-01T02:01:42.046Z,118.10
2022-12-01T02:02:41.933Z,121.90
2022-12-01T02:03:41.963Z,121.10
2022-12-01T02:04:42.623Z,121.50
2022-12-01T02:05:41.899Z,126.50
2022-12-01T02:06:41.903Z,128.10
2022-12-01T02:07:41.905Z,129.10
2022-12-01T02:08:41.860Z,124.70
2022-12-01T02:09:41.864Z,128.10
2022-12-01T02:10:41.968Z,125.80
2022-12-01T02:11:41.818Z,124.20
2022-12-01T02:12:41.829Z,124.60
2022-12-01T02:13:41.801Z,118.70
2022-12-01T02:14:41.818Z,130.30
2022-12-01T02:15:41.745Z,128.50
2022-12-01T02:16:41.791Z,126.20
2022-12-01T02:17:42.131Z,126.50
2022-12-01T02:18:42.755Z,124.10
2022-12-01T02:19:41.752Z,125.10
2022-12-01T02:20:41.690Z,127.00
2022-12-01T02:21:41.697Z,122.30
2022-12-01T02:22:41.691Z,121.70
2022-12-01T02:23:41.756Z,120.80
2022-12-01T02:24:41.661Z,117.90
2022-12-01T02:25:41.644Z,131.80
2022-12-01T02:26:41.666Z,124.70
2022-12-01T02:27:41.682Z,122.90
2022-12-01T02:28:41.608Z,122.90
2022-12-01T02:29:41.816Z,111.20
2022-12-01T02:30:41.638Z,120.80
2022-12-01T02:31:41.588Z,123.50
2022-12-01T02:32:41.596Z,118.80
2022-12-01T02:33:41.544Z,122.40
2022-12-01T02:34:41.609Z,122.40
2022-12-01T02:35:41.548Z,121.30
2022-12-01T02:36:41.542Z,117.80
2022-12-01T02:37:41.576Z,124.30
2022-12-01T02:38:42.510Z,125.20
2022-12-01T02:39:41.501Z,122.30
2022-12-01T02:40:41.480Z,131.40
2022-12-01T02:41:41.497Z,124.50
2022-12-01T02:42:41.471Z,124.70
2022-12-01T02:43:41.441Z,118.00
2022-12-01T02:44:41.532Z,127.70
2022-12-01T02:45:41.458Z,122.30
2022-12-01T02:46:41.426Z,118.70
2022-12-01T02:47:41.384Z,114.90
2022-12-01T02:48:41.474Z,120.50
2022-12-01T02:49:41.564Z,119.50
2022-12-01T02:50:41.452Z,120.00
2022-12-01T02:51:41.382Z,120.40
2022-12-01T02:52:41.363Z,122.60
2022-12-01T02:53:41.333Z,119.20
2022-12-01T02:54:41.363Z,126.90
2022-12-01T02:55:41.334Z,120.20
2022-12-01T02:56:41.422Z,122.30
2022-12-01T02:57:41.302Z,120.90
2022-12-01T02:58:41.289Z,129.10
2022-12-01T02:59:42.153Z,128.60
2022-12-01T03:00:41.310Z,121.00
2022-12-01T03:01:41.335Z,130.60
2022-12-01T03:02:42.212Z,118.60
2022-12-01T03:03:41.229Z,120.10
2022-12-01T03:04:41.237Z,130.20
2022-12-01T03:05:41.255Z,125.50
2022-12-01T03:06:41.191Z,132.00
2022-12-01T03:07:41.237Z,130.50
2022-12-01T03:08:41.158Z,126.80
2022-12-01T03:09:41.152Z,126.80
2022-12-01T03:10:41.139Z,128.00
2022-12-01T03:11:41.196Z,124.20
2022-12-01T03:12:41.278Z,131.70
2022-12-01T03:13:41.083Z,126.60
2022-12-01T03:14:41.109Z,131.10
2022-12-01T03:15:41.134Z,128.80
2022-12-01T03:16:41.112Z,136.00
2022-12-01T03:17:42.044Z,129.80
2022-12-01T03:18:41.064Z,129.60
2022-12-01T03:19:41.035Z,130.20
2022-12-01T03:20:41.061Z,134.00
2022-12-01T03:21:41.019Z,126.40
2022-12-01T03:22:40.999Z,132.30
2022-12-01T03:23:41.091Z,129.60
2022-12-01T03:24:40.983Z,131.30
2022-12-01T03:25:41.008Z,129.90
2022-12-01T03:26:40.999Z,127.10
2022-12-01T03:27:41.772Z,132.00
2022-12-01T03:28:42.936Z,129.50
2022-12-01T03:29:41.975Z,128.20
2022-12-01T03:30:40.965Z,134.70
2022-12-01T03:31:41.148Z,129.10
2022-12-01T03:32:40.904Z,135.20
2022-12-01T03:33:40.952Z,139.20
2022-12-01T03:34:40.851Z,135.10
2022-12-01T03:35:40.858Z,131.20
2022-12-01T03:36:40.857Z,129.20
2022-12-01T03:37:40.879Z,127.50
2022-12-01T03:38:40.893Z,134.30
2022-12-01T03:39:40.994Z,137.00
2022-12-01T03:40:40.800Z,132.80
2022-12-01T03:41:41.673Z,132.80
2022-12-01T03:42:40.767Z,137.60
2022-12-01T03:43:40.757Z,134.80
2022-12-01T03:44:40.820Z,127.50
2022-12-01T03:45:40.796Z,133.60
2022-12-01T03:46:40.839Z,123.70
2022-12-01T03:47:40.733Z,128.60
2022-12-01T03:48:40.723Z,126.70
2022-12-01T03:49:40.720Z,128.40
2022-12-01T03:50:40.716Z,126.60
2022-12-01T03:51:40.740Z,128.10
2022-12-01T03:52:40.652Z,120.90
2022-12-01T03:53:40.672Z,129.20
2022-12-01T03:54:41.740Z,136.90
2022-12-01T03:55:40.673Z,137.20
2022-12-01T03:56:40.620Z,119.40
2022-12-01T03:57:41.637Z,129.60
2022-12-01T03:58:40.589Z,128.50
2022-12-01T03:59:40.600Z,127.10
2022-12-01T04:00:40.697Z,134.10
2022-12-01T04:01:40.624Z,131.80
2022-12-01T04:02:40.630Z,124.30
2022-12-01T04:03:40.707Z,132.50
2022-12-01T04:04:40.554Z,126.00
2022-12-01T04:06:14.036Z,130.50
2022-12-01T04:06:40.521Z,135.90
2022-12-01T04:07:40.552Z,128.30
2022-12-01T04:08:40.501Z,127.40
2022-12-01T04:09:40.520Z,122.60
2022-12-01T04:10:40.524Z,127.30
2022-12-01T04:11:40.465Z,120.00
2022-12-01T04:12:40.477Z,128.10
2022-12-01T04:13:40.506Z,117.90
2022-12-01T04:14:40.453Z,129.50
2022-12-01T04:15:40.511Z,127.10
2022-12-01T04:16:40.424Z,126.00
2022-12-01T04:17:40.411Z,124.80
2022-12-01T04:18:40.394Z,124.10
2022-12-01T04:19:40.362Z,125.70
2022-12-01T04:20:40.366Z,122.50
2022-12-01T04:21:40.381Z,123.50
2022-12-01T04:22:40.344Z,132.10
2022-12-01T04:23:40.342Z,121.60
2022-12-01T04:24:40.322Z,118.50
2022-12-01T04:25:40.291Z,114.20
2022-12-01T04:26:40.318Z,124.60
2022-12-01T04:27:40.280Z,125.40
2022-12-01T04:28:40.239Z,124.30
2022-12-01T04:29:40.294Z,126.30
2022-12-01T04:30:40.246Z,124.60
2022-12-01T04:31:40.341Z,128.70
2022-12-01T04:32:40.242Z,109.80
2022-12-01T04:33:40.254Z,103.90
2022-12-01T04:34:40.202Z,114.20
2022-12-01T04:35:41.188Z,109.30
2022-12-01T04:36:40.207Z,103.60
2022-12-01T04:37:40.234Z,113.40
2022-12-01T04:38:40.156Z,107.80
2022-12-01T04:39:40.210Z,110.80
2022-12-01T04:40:41.128Z,108.40
2022-12-01T04:41:40.152Z,113.30
2022-12-01T04:42:40.118Z,104.70
2022-12-01T04:43:40.174Z,114.30
2022-12-01T04:44:40.131Z,108.00
2022-12-01T04:45:40.112Z,112.30
2022-12-01T04:46:40.404Z,105.30
2022-12-01T04:47:40.084Z,105.10
2022-12-01T04:48:40.047Z,106.10
2022-12-01T04:49:40.079Z,98.60
2022-12-01T04:50:40.060Z,100.00
2022-12-01T04:51:40.059Z,99.70
2022-12-01T04:52:40.081Z,103.10
2022-12-01T04:53:39.998Z,101.20
2022-12-01T04:54:40.519Z,103.50
2022-12-01T04:55:39.964Z,105.40
2022-12-01T04:56:39.940Z,100.10
2022-12-01T04:57:39.948Z,101.30
2022-12-01T04:58:39.914Z,102.00
2022-12-01T04:59:39.953Z,109.40
2022-12-01T05:00:39.899Z,106.10
2022-12-01T05:01:40.030Z,107.70
2022-12-01T05:02:39.885Z,104.20
2022-12-01T05:03:39.873Z,107.60
2022-12-01T05:04:39.884Z,104.60
2022-12-01T05:05:39.844Z,104.10
2022-12-01T05:06:39.916Z,102.80
2022-12-01T05:07:39.909Z,103.20
2022-12-01T05:08:39.793Z,110.00
2022-12-01T05:09:39.849Z,104.30
2022-12-01T05:10:39.928Z,102.40
2022-12-01T05:11:39.805Z,102.30
2022-12-01T05:12:39.860Z,101.00
2022-12-01T05:13:39.786Z,104.40
2022-12-01T05:14:39.732Z,104.70
2022-12-01T05:15:39.770Z,103.60
2022-12-01T05:16:39.871Z,105.20
2022-12-01T05:17:39.783Z,104.60
2022-12-01T05:18:39.733Z,106.30
2022-12-01T05:19:39.728Z,102.80
2022-12-01T05:20:39.693Z,107.20
2022-12-01T05:21:39.702Z,107.80
2022-12-01T05:23:04.341Z,103.10
2022-12-01T05:23:41.665Z,112.40
2022-12-01T05:24:39.629Z,104.40
2022-12-01T05:25:39.623Z,104.90
2022-12-01T05:26:39.625Z,107.10
2022-12-01T05:27:39.609Z,104.10
2022-12-01T05:28:39.629Z,108.50
2022-12-01T05:29:39.584Z,107.40
2022-12-01T05:30:39.603Z,108.80
2022-12-01T05:31:39.830Z,106.60
2022-12-01T05:32:39.542Z,107.70
2022-12-01T05:33:39.553Z,109.30
2022-12-01T05:34:39.634Z,113.60
2022-12-01T05:35:39.541Z,114.70
2022-12-01T05:36:39.501Z,111.20
2022-12-01T05:37:39.494Z,108.40
2022-12-01T05:38:39.586Z,117.20
2022-12-01T05:39:39.616Z,113.40
2022-12-01T05:40:39.618Z,105.60
2022-12-01T05:41:39.496Z,114.10
2022-12-01T05:42:42.123Z,112.00
2022-12-01T05:43:40.458Z,112.40
2022-12-01T05:44:39.551Z,114.10
2022-12-01T05:45:40.581Z,116.30
2022-12-01T05:46:39.430Z,115.00
2022-12-01T05:47:39.404Z,115.10
2022-12-01T05:48:39.440Z,117.00
2022-12-01T05:49:39.370Z,114.90
2022-12-01T05:50:39.419Z,114.10
2022-12-01T05:51:39.419Z,116.70
2022-12-01T05:52:44.230Z,111.80
2022-12-01T05:53:39.359Z,112.70
2022-12-01T05:54:39.370Z,111.00
2022-12-01T05:55:39.383Z,115.60
2022-12-01T05:56:39.263Z,117.90
2022-12-01T05:57:39.258Z,118.00
2022-12-01T05:58:39.348Z,117.20
2022-12-01T05:59:39.227Z,119.00
2022-12-01T06:00:45.356Z,117.10
2022-12-01T06:01:41.413Z,119.80
2022-12-01T06:02:39.223Z,119.00
2022-12-01T06:03:39.248Z,114.70
2022-12-01T06:04:39.183Z,116.30
2022-12-01T06:05:40.154Z,116.80
2022-12-01T06:06:39.191Z,119.80
2022-12-01T06:07:39.158Z,115.00
2022-12-01T06:08:39.263Z,114.00
2022-12-01T06:09:39.131Z,115.90
2022-12-01T06:10:39.149Z,108.60
2022-12-01T06:11:39.092Z,114.40
2022-12-01T06:12:39.079Z,114.20
2022-12-01T06:13:39.111Z,113.70
2022-12-01T06:14:39.154Z,110.20
2022-12-01T06:15:39.083Z,111.50
2022-12-01T06:16:39.203Z,104.90
2022-12-01T06:17:40.519Z,111.10
2022-12-01T06:18:40.043Z,111.30
2022-12-01T06:19:39.077Z,115.90
2022-12-01T06:20:39.029Z,108.50
2022-12-01T06:21:39.000Z,106.10
2022-12-01T06:22:38.955Z,100.80
2022-12-01T06:23:38.945Z,99.20
2022-12-01T06:24:38.953Z,97.20
2022-12-01T06:25:38.946Z,101.50
2022-12-01T06:26:38.945Z,94.00
2022-12-01T06:27:38.910Z,94.30
2022-12-01T06:28:38.888Z,93.30
2022-12-01T06:29:42.042Z,95.60
2022-12-01T06:30:40.153Z,96.20
2022-12-01T06:31:38.915Z,96.20
2022-12-01T06:32:38.861Z,93.50
2022-12-01T06:33:38.909Z,93.00
2022-12-01T06:34:38.856Z,89.20
2022-12-01T06:35:38.886Z,97.70
2022-12-01T06:36:39.065Z,91.30
2022-12-01T06:37:38.790Z,93.20
2022-12-01T06:38:38.985Z,88.10
2022-12-01T06:39:38.772Z,90.40
2022-12-01T06:40:38.792Z,91.20
2022-12-01T06:41:38.761Z,88.70
2022-12-01T06:42:38.725Z,98.00
2022-12-01T06:43:38.705Z,99.30
2022-12-01T06:44:39.208Z,95.70
2022-12-01T06:45:38.780Z,97.30
2022-12-01T06:46:38.753Z,92.60
2022-12-01T06:47:38.721Z,93.60
2022-12-01T06:48:38.865Z,94.10
2022-12-01T06:49:38.676Z,90.90
2022-12-01T06:50:38.749Z,89.60
2022-12-01T06:51:38.640Z,89.80
2022-12-01T06:52:38.656Z,94.90
2022-12-01T06:53:38.672Z,91.90
2022-12-01T06:54:38.789Z,89.10
2022-12-01T06:55:38.621Z,93.70
2022-12-01T06:56:38.623Z,93.50
2022-12-01T06:57:38.652Z,96.80
2022-12-01T06:58:38.621Z,88.00
2022-12-01T06:59:38.645Z,94.60
2022-12-01T07:00:38.521Z,92.10
2022-12-01T07:01:38.870Z,90.10
2022-12-01T07:02:39.483Z,99.30
2022-12-01T07:03:38.590Z,98.80
2022-12-01T07:04:38.587Z,93.30
2022-12-01T07:05:40.986Z,87.20
2022-12-01T07:06:38.743Z,94.60
2022-12-01T07:07:38.717Z,97.40
2022-12-01T07:08:38.442Z,92.90
2022-12-01T07:09:38.517Z,87.30
2022-12-01T07:10:38.611Z,82.50
2022-12-01T07:11:38.666Z,81.90
2022-12-01T07:12:42.166Z,88.70
2022-12-01T07:13:38.386Z,91.40
2022-12-01T07:14:38.435Z,84.20
2022-12-01T07:15:38.435Z,86.60
2022-12-01T07:16:38.400Z,87.90
2022-12-01T07:17:39.086Z,84.90
2022-12-01T07:18:38.399Z,84.10
2022-12-01T07:19:38.342Z,81.30
2022-12-01T07:20:38.338Z,77.90
2022-12-01T07:21:38.319Z,81.40
2022-12-01T07:22:38.284Z,84.80
2022-12-01T07:23:38.323Z,75.80
2022-12-01T07:24:38.459Z,81.70
2022-12-01T07:25:39.062Z,84.70
2022-12-01T07:26:39.033Z,77.30
2022-12-01T07:27:38.302Z,76.10
2022-12-01T07:28:38.267Z,79.40
2022-12-01T07:29:38.391Z,78.80
2022-12-01T07:30:38.248Z,84.30
2022-12-01T07:31:38.586Z,79.30
2022-12-01T07:32:38.226Z,80.70
2022-12-01T07:33:38.239Z,78.70
2022-12-01T07:34:38.201Z,75.60
2022-12-01T07:35:38.221Z,74.40
2022-12-01T07:36:38.204Z,76.40
2022-12-01T07:37:38.166Z,77.60
2022-12-01T07:38:38.150Z,74.00
2022-12-01T07:39:38.130Z,79.10
2022-12-01T07:40:39.158Z,76.10
2022-12-01T07:41:39.161Z,76.00
2022-12-01T07:42:38.109Z,78.30
2022-12-01T07:43:38.187Z,79.70
2022-12-01T07:44:38.610Z,80.40
2022-12-01T07:45:38.121Z,81.60
2022-12-01T07:46:38.111Z,83.90
2022-12-01T07:47:40.594Z,80.60
2022-12-01T07:48:38.637Z,84.60
2022-12-01T07:49:38.073Z,80.40
2022-12-01T07:50:37.989Z,79.60
2022-12-01T07:51:38.026Z,79.70
2022-12-01T07:52:37.973Z,82.60
2022-12-01T07:53:38.041Z,82.50
2022-12-01T07:54:38.978Z,80.30
2022-12-01T07:55:37.969Z,80.20
2022-12-01T07:56:39.700Z,83.10
2022-12-01T07:57:37.948Z,83.30
2022-12-01T07:58:38.630Z,81.20
2022-12-01T07:59:39.480Z,85.40
2022-12-01T08:00:37.948Z,82.40
2022-12-01T08:01:44.069Z,80.00
2022-12-01T08:02:38.907Z,81.90
2022-12-01T08:03:38.880Z,78.70
2022-12-01T08:04:37.976Z,78.40
2022-12-01T08:05:39.491Z,80.20
2022-12-01T08:06:37.874Z,82.50
2022-12-01T08:07:38.614Z,83.90
2022-12-01T08:08:37.826Z,79.80
2022-12-01T08:09:37.829Z,76.70
2022-12-01T08:10:37.798Z,81.20
2022-12-01T08:11:37.813Z,83.90
2022-12-01T08:12:37.809Z,84.60
2022-12-01T08:13:37.751Z,83.40
2022-12-01T08:14:37.741Z,81.30
2022-12-01T08:15:37.784Z,81.00
2022-12-01T08:16:41.532Z,83.60
2022-12-01T08:17:37.703Z,81.80
2022-12-01T08:18:38.425Z,82.30
2022-12-01T08:19:38.678Z,80.80
2022-12-01T08:20:37.654Z,84.80
2022-12-01T08:21:37.748Z,80.10
2022-12-01T08:22:37.765Z,83.30
2022-12-01T08:23:38.580Z,83.60
2022-12-01T08:24:37.687Z,81.80
2022-12-01T08:25:37.692Z,85.50
2022-12-01T08:26:37.650Z,87.70
2022-12-01T08:27:38.581Z,82.00
2022-12-01T08:28:37.589Z,85.90
2022-12-01T08:29:37.637Z,85.20
2022-12-01T08:30:37.565Z,81.00
2022-12-01T08:31:37.585Z,83.00
2022-12-01T08:32:37.799Z,85.50
2022-12-01T08:33:37.818Z,80.30
2022-12-01T08:34:39.047Z,84.70
2022-12-01T08:35:37.574Z,84.80
2022-12-01T08:36:37.770Z,83.50
2022-12-01T08:37:38.490Z,76.80
2022-12-01T08:38:37.528Z,76.90
2022-12-01T08:39:37.534Z,73.90
2022-12-01T08:40:38.450Z,72.50
2022-12-01T08:41:37.442Z,69.80
2022-12-01T08:42:37.651Z,71.80
2022-12-01T08:44:39.480Z,66.50
2022-12-01T08:45:37.477Z,62.50
2022-12-01T08:46:37.562Z,67.70
2022-12-01T08:47:38.382Z,65.10
2022-12-01T08:48:37.401Z,68.50
2022-12-01T08:49:37.335Z,64.30
2022-12-01T08:50:37.554Z,62.90
2022-12-01T08:51:37.431Z,66.40
2022-12-01T08:52:37.330Z,66.30
2022-12-01T08:53:40.196Z,62.10
2022-12-01T08:54:38.439Z,64.90
2022-12-01T08:55:37.289Z,58.50
2022-12-01T08:56:37.323Z,65.00
2022-12-01T08:57:37.452Z,64.40
2022-12-01T08:58:37.273Z,63.70
2022-12-01T08:59:37.231Z,67.60
2022-12-01T09:00:37.285Z,61.60
2022-12-01T09:01:37.268Z,64.60
2022-12-01T09:02:37.496Z,64.20
2022-12-01T09:03:37.234Z,64.50
2022-12-01T09:04:37.202Z,63.50
2022-12-01T09:05:37.215Z,65.00
2022-12-01T09:06:38.058Z,68.40
2022-12-01T09:07:37.287Z,69.80
2022-12-01T09:08:38.234Z,73.30
2022-12-01T09:09:37.164Z,69.40
2022-12-01T09:10:37.133Z,73.90
2022-12-01T09:11:37.110Z,72.20
2022-12-01T09:12:37.138Z,68.00
2022-12-01T09:13:37.096Z,67.70
2022-12-01T09:14:37.955Z,69.80
2022-12-01T09:15:37.235Z,78.40
2022-12-01T09:16:37.234Z,73.10
2022-12-01T09:17:37.071Z,74.30
2022-12-01T09:18:37.029Z,72.40
2022-12-01T09:19:37.084Z,68.80
2022-12-01T09:20:38.027Z,71.40
2022-12-01T09:21:37.067Z,66.20
2022-12-01T09:22:37.088Z,67.70
2022-12-01T09:23:36.967Z,67.20
2022-12-01T09:24:37.711Z,70.70
2022-12-01T09:25:37.060Z,65.30
2022-12-01T09:26:36.937Z,69.80
2022-12-01T09:27:36.957Z,69.60
2022-12-01T09:28:36.995Z,69.90
2022-12-01T09:29:36.943Z,71.00
2022-12-01T09:30:36.904Z,80.00
2022-12-01T09:31:37.004Z,76.00
2022-12-01T09:32:36.891Z,83.00
2022-12-01T09:33:36.885Z,73.40
2022-12-01T09:34:36.901Z,73.00
2022-12-01T09:35:36.860Z,70.00
2022-12-01T09:36:38.432Z,75.90
2022-12-01T09:37:36.924Z,80.30
2022-12-01T09:38:36.920Z,64.50
2022-12-01T09:39:36.832Z,66.00
2022-12-01T09:40:36.808Z,62.80
2022-12-01T09:41:36.792Z,65.80
2022-12-01T09:42:36.788Z,57.60
2022-12-01T09:43:36.760Z,69.60
2022-12-01T09:44:36.886Z,61.30
2022-12-01T09:45:36.740Z,66.00
2022-12-01T09:46:36.807Z,62.90
2022-12-01T09:47:36.728Z,64.30
2022-12-01T09:48:36.826Z,63.30
2022-12-01T09:49:36.703Z,62.80
2022-12-01T09:50:36.679Z,62.80
2022-12-01T09:51:36.757Z,64.10
2022-12-01T09:52:36.755Z,55.10
2022-12-01T09:53:36.704Z,46.10
2022-12-01T09:54:36.670Z,43.10
2022-12-01T09:55:36.675Z,38.30
2022-12-01T09:56:36.702Z,37.30
2022-12-01T09:57:36.654Z,34.60
2022-12-01T09:58:36.599Z,36.50
2022-12-01T09:59:36.652Z,36.90
2022-12-01T10:00:36.780Z,36.90
2022-12-01T10:01:36.646Z,37.90
2022-12-01T10:02:36.649Z,37.90
2022-12-01T10:03:36.532Z,40.40
2022-12-01T10:04:36.595Z,40.40
2022-12-01T10:05:36.628Z,41.20
2022-12-01T10:06:36.581Z,38.90
2022-12-01T10:07:36.608Z,41.80
2022-12-01T10:08:36.498Z,41.00
2022-12-01T10:09:36.557Z,39.00
2022-12-01T10:10:36.483Z,38.40
2022-12-01T10:11:36.453Z,37.90
2022-12-01T10:12:36.449Z,38.60
2022-12-01T10:13:36.449Z,41.60
2022-12-01T10:14:36.445Z,41.60
2022-12-01T10:15:36.445Z,40.90
2022-12-01T10:16:36.430Z,40.40
2022-12-01T10:17:36.426Z,41.60
2022-12-01T10:18:36.379Z,46.00
2022-12-01T10:19:36.370Z,41.60
2022-12-01T10:20:43.049Z,39.90
2022-12-01T10:21:37.368Z,43.40
2022-12-01T10:22:36.338Z,42.30
2022-12-01T10:23:36.414Z,45.90
2022-12-01T10:24:36.382Z,42.10
2022-12-01T10:25:36.356Z,41.30
2022-12-01T10:26:36.305Z,35.80
2022-12-01T10:27:36.358Z,40.30
2022-12-01T10:28:36.306Z,37.50
2022-12-01T10:29:36.284Z,37.10
2022-12-01T10:30:36.992Z,38.80
2022-12-01T10:31:36.345Z,42.40
2022-12-01T10:32:36.236Z,38.60
2022-12-01T10:33:36.273Z,33.00
2022-12-01T10:34:36.256Z,37.90
2022-12-01T10:35:36.226Z,39.40
2022-12-01T10:36:36.216Z,36.10
2022-12-01T10:37:36.382Z,39.90
2022-12-01T10:38:36.175Z,39.90
2022-12-01T10:39:36.162Z,39.20
2022-12-01T10:40:36.141Z,38.80
2022-12-01T10:41:36.154Z,37.50
2022-12-01T10:42:36.187Z,41.50
2022-12-01T10:43:36.163Z,42.00
2022-12-01T10:44:36.159Z,44.90
2022-12-01T10:45:36.168Z,44.90
2022-12-01T10:46:36.096Z,39.60
2022-12-01T10:47:36.200Z,41.50
2022-12-01T10:48:36.314Z,42.80
2022-12-01T10:49:36.085Z,41.10
2022-12-01T10:50:36.057Z,39.90
2022-12-01T10:51:36.081Z,41.60
2022-12-01T10:52:36.014Z,38.80
2022-12-01T10:53:36.066Z,41.40
2022-12-01T10:54:36.003Z,41.10
2022-12-01T10:55:35.994Z,43.10
2022-12-01T10:56:35.973Z,40.50
2022-12-01T10:57:35.963Z,40.90
2022-12-01T10:58:36.034Z,42.70
2022-12-01T10:59:35.959Z,43.10
2022-12-01T11:00:58.654Z,42.60
2022-12-01T11:01:38.055Z,45.80
2022-12-01T11:02:36.210Z,43.70
2022-12-01T11:03:36.098Z,46.60
2022-12-01T11:04:35.931Z,41.40
2022-12-01T11:05:35.889Z,42.10
2022-12-01T11:06:36.010Z,42.80
2022-12-01T11:07:35.912Z,35.60
2022-12-01T11:08:35.886Z,35.60
2022-12-01T11:09:35.850Z,33.90
2022-12-01T11:10:35.867Z,36.80
2022-12-01T11:11:35.823Z,37.50
2022-12-01T11:12:35.829Z,34.90
2022-12-01T11:13:35.779Z,36.30
2022-12-01T11:14:36.078Z,34.40
2022-12-01T11:15:35.767Z,33.00
2022-12-01T11:16:36.559Z,31.10
2022-12-01T11:17:35.747Z,32.90
2022-12-01T11:18:35.828Z,34.30
2022-12-01T11:19:35.750Z,35.90
2022-12-01T11:20:35.742Z,37.30
2022-12-01T11:21:35.732Z,38.10
2022-12-01T11:22:35.735Z,37.20
2022-12-01T11:23:35.685Z,39.50
2022-12-01T11:24:35.667Z,38.60
2022-12-01T11:25:35.693Z,41.90
2022-12-01T11:26:35.679Z,40.10
2022-12-01T11:27:35.676Z,38.80
2022-12-01T11:28:36.615Z,37.80
2022-12-01T11:29:35.611Z,39.60
2022-12-01T11:30:35.628Z,39.60
2022-12-01T11:31:35.677Z,38.50
2022-12-01T11:32:35.590Z,39.60
2022-12-01T11:33:35.592Z,38.10
2022-12-01T11:34:35.556Z,36.40
2022-12-01T11:35:35.550Z,35.50
2022-12-01T11:36:36.522Z,39.10
2022-12-01T11:37:35.551Z,36.80
2022-12-01T11:38:35.515Z,35.30
2022-12-01T11:39:35.507Z,35.70
2022-12-01T11:40:35.543Z,36.10
2022-12-01T11:41:35.485Z,36.10
2022-12-01T11:42:35.493Z,35.40
2022-12-01T11:43:35.569Z,38.20
2022-12-01T11:44:50.717Z,35.60
2022-12-01T11:45:37.533Z,34.20
2022-12-01T11:46:35.559Z,36.10
2022-12-01T11:47:36.438Z,37.10
2022-12-01T11:48:35.446Z,37.70
2022-12-01T11:49:35.563Z,36.80
2022-12-01T11:50:35.375Z,38.30
2022-12-01T11:51:35.373Z,37.70
2022-12-01T11:52:35.374Z,37.00
2022-12-01T11:53:36.035Z,37.20
2022-12-01T11:54:35.472Z,40.10
2022-12-01T11:55:35.327Z,40.80
2022-12-01T11:56:35.330Z,38.10
2022-12-01T11:57:35.488Z,39.30
2022-12-01T11:58:35.324Z,38.30
2022-12-01T11:59:35.297Z,41.40
2022-12-01T12:00:35.289Z,36.40
2022-12-01T12:01:35.336Z,34.40
2022-12-01T12:02:35.299Z,38.90
2022-12-01T12:03:35.282Z,37.30
2022-12-01T12:04:35.592Z,35.00
2022-12-01T12:05:35.240Z,36.70
2022-12-01T12:06:42.452Z,38.40
2022-12-01T12:07:37.645Z,42.50
2022-12-01T12:08:35.574Z,38.50
2022-12-01T12:09:36.601Z,37.80
2022-12-01T12:10:35.567Z,39.70
2022-12-01T12:11:35.213Z,37.20
2022-12-01T12:12:35.199Z,37.40
2022-12-01T12:13:41.077Z,35.90
2022-12-01T12:14:40.950Z,35.80
2022-12-01T12:15:42.370Z,36.40
2022-12-01T12:16:36.140Z,37.50
2022-12-01T12:17:38.571Z,37.50
2022-12-01T12:18:35.748Z,39.90
2022-12-01T12:20:00.060Z,39.10
2022-12-01T12:20:38.928Z,45.00
2022-12-01T12:21:38.135Z,42.40
2022-12-01T12:22:35.085Z,38.70
2022-12-01T12:23:35.048Z,40.70
2022-12-01T12:24:35.025Z,39.80
2022-12-01T12:25:35.059Z,43.20
2022-12-01T12:26:35.016Z,42.20
2022-12-01T12:27:35.040Z,42.10
2022-12-01T12:28:35.009Z,38.50
2022-12-01T12:29:35.947Z,43.90
2022-12-01T12:30:34.968Z,43.40
2022-12-01T12:31:34.930Z,41.50
2022-12-01T12:32:34.959Z,44.70
2022-12-01T12:33:34.941Z,41.00
2022-12-01T12:34:34.917Z,43.20
2022-12-01T12:35:34.885Z,45.20
2022-12-01T12:36:34.888Z,45.40
2022-12-01T12:37:34.870Z,45.20
2022-12-01T12:38:34.956Z,43.60
2022-12-01T12:39:34.839Z,46.70
2022-12-01T12:40:34.849Z,44.60
2022-12-01T12:41:34.841Z,45.00
2022-12-01T12:42:34.821Z,44.20
2022-12-01T12:43:34.803Z,44.90